Date,TemperatureHighF,TemperatureAvgF,TemperatureLowF,DewpointHighF,DewpointAvgF,DewpointLowF,HumidityHigh,HumidityAvg,HumidityLow,PressureMaxIn,PressureMinIn,WindSpeedMaxMPH,WindSpeedAvgMPH,GustSpeedMaxMPH,PrecipitationSumIn
2013-1-1,49.8,42.4,34.4,43.0,35.7,15.0,94,78,43,30.23,30.07,22,5,31,0.25
2013-1-2,41.2,35.3,31.8,39.0,33.5,30.0,94,92,87,30.28,30.02,13,4,19,0.01
2013-1-3,36.5,30.9,26.6,33.0,27.9,21.0,95,89,76,30.40,30.24,13,3,15,0.01
2013-1-4,37.1,28.1,24.0,20.0,19.0,16.0,82,70,46,30.50,30.38,25,6,25,0.00
2013-1-5,43.9,32.6,22.9,26.0,19.7,15.0,83,62,32,30.57,30.39,16,6,25,0.00
2013-1-6,42.7,34.4,30.6,36.0,30.2,27.0,94,85,73,30.39,30.20,12,6,26,0.00
2013-1-7,44.7,34.0,25.9,29.0,25.5,23.0,89,72,47,30.55,30.30,18,6,22,0.00
2013-1-8,46.6,37.3,30.9,35.0,29.5,24.0,89,74,59,30.57,30.49,15,4,17,0.00
2013-1-9,57.7,49.1,39.2,51.0,45.1,37.0,94,86,69,30.58,30.50,7,3,18,0.00
2013-1-10,55.6,49.3,45.0,53.0,46.8,35.0,96,91,68,30.60,30.45,8,4,17,0.00
2013-1-11,53.0,46.5,40.6,52.0,45.2,36.0,96,95,70,30.45,30.25,9,4,16,0.41
2013-1-12,65.0,58.2,53.9,60.0,55.7,53.0,96,91,77,30.28,30.14,11,3,18,0.00
2013-1-13,59.5,55.5,53.2,58.0,54.0,52.0,96,94,89,30.18,30.09,13,6,18,0.01
2013-1-14,56.0,53.7,44.9,55.0,52.6,44.0,97,96,95,30.21,30.11,12,3,18,2.40
2013-1-15,50.0,43.4,38.1,49.0,42.5,37.0,97,96,96,30.24,30.14,6,3,11,2.35
2013-1-16,60.0,48.8,41.9,50.0,46.2,41.0,97,91,65,30.15,30.07,15,3,20,0.23
2013-1-17,47.9,39.3,27.9,47.0,38.2,27.0,96,95,94,30.26,29.92,12,6,19,1.27
2013-1-18,37.4,28.8,22.2,32.0,24.8,20.0,94,85,72,30.68,30.27,11,5,24,0.44
2013-1-19,45.8,35.9,26.3,32.0,26.0,20.0,84,69,40,30.64,30.29,7,3,12,0.06
2013-1-20,45.6,38.7,32.5,32.0,27.8,19.0,79,66,45,30.29,30.19,20,6,33,0.00
2013-1-21,43.1,33.9,22.6,29.0,21.3,6.0,82,61,42,30.21,30.04,16,6,34,0.00
2013-1-22,24.2,18.7,13.6,8.0,0.3,-4.0,61,46,31,30.41,30.04,19,6,36,0.00
2013-1-23,35.6,26.1,16.8,27.0,13.4,-1.0,72,59,45,30.51,30.20,16,5,34,0.00
2013-1-24,36.2,25.8,16.5,29.0,13.1,3.0,78,59,41,30.56,30.06,36,8,42,0.00
2013-1-25,37.2,21.0,13.5,36.0,16.5,4.0,94,83,63,30.59,30.27,26,7,39,0.00
2013-1-26,34.4,29.9,24.8,31.0,25.4,21.0,92,83,67,30.52,30.25,17,6,27,0.01
2013-1-27,32.1,26.8,22.7,27.0,24.3,21.0,93,90,80,30.68,30.52,9,4,15,0.00
2013-1-28,52.2,42.0,28.4,43.0,36.4,26.0,94,81,64,30.61,30.38,9,3,13,0.22
2013-1-29,63.3,54.3,45.0,53.0,46.9,41.0,95,77,55,30.38,30.09,10,5,23,0.02
2013-1-30,57.1,53.0,41.5,56.0,51.9,40.0,97,96,92,30.08,29.50,27,10,38,6.08
2013-1-31,41.5,28.7,23.8,39.0,22.8,18.0,92,79,65,30.12,29.51,19,7,37,0.02
2013-2-1,35.0,20.3,13.6,28.0,11.7,4.0,92,70,56,30.50,30.04,16,6,36,0.00
2013-2-2,30.3,22.7,14.5,26.0,13.4,-2.0,93,69,38,30.54,30.25,10,3,22,0.00
2013-2-3,32.7,28.7,22.6,28.0,23.7,19.0,87,81,73,30.11,30.00,27,10,46,0.07
2013-2-4,41.8,30.2,18.8,27.0,21.0,16.0,89,70,51,30.30,30.09,12,5,27,0.02
2013-2-5,47.0,40.2,35.0,35.0,28.4,21.0,77,64,47,30.14,30.05,17,5,28,0.00
2013-2-6,49.6,40.9,33.4,34.0,24.9,15.0,80,56,26,30.38,30.08,16,4,25,0.00
2013-2-7,39.6,36.3,33.9,36.0,28.8,20.0,95,76,46,30.40,30.16,8,3,14,0.49
2013-2-8,44.4,37.2,27.9,41.0,33.8,24.0,96,88,58,30.16,30.01,19,6,33,0.05
2013-2-9,48.5,36.3,26.5,24.0,16.2,10.0,86,48,22,30.50,30.14,17,6,32,0.00
2013-2-10,46.3,38.0,33.2,39.0,23.1,16.0,95,57,39,30.51,30.25,19,7,27,0.16
2013-2-11,55.0,46.9,40.9,52.0,38.4,21.0,96,76,39,30.27,30.05,18,7,29,0.08
2013-2-12,51.0,40.3,33.8,33.0,22.4,13.0,93,52,28,30.18,30.05,24,6,31,0.01
2013-2-13,41.6,35.5,30.5,41.0,33.9,28.0,96,93,89,30.05,29.75,17,4,29,0.28
2013-2-14,46.9,35.7,25.8,32.0,26.6,21.0,89,71,42,30.20,29.95,19,5,26,0.00
2013-2-15,51.9,38.9,28.7,36.0,30.4,25.0,93,74,37,30.21,30.06,19,4,23,0.04
2013-2-16,28.4,24.5,17.6,26.0,20.1,10.0,91,83,70,30.10,29.94,18,8,29,0.01
2013-2-17,27.8,20.2,13.5,13.0,8.7,4.0,82,62,45,30.43,30.06,20,6,44,0.00
2013-2-18,45.8,33.4,21.9,24.0,17.9,7.0,65,54,39,30.54,30.32,17,5,22,0.00
2013-2-19,46.6,35.0,28.3,41.0,25.2,10.0,94,69,45,30.30,30.00,20,8,31,0.04
2013-2-20,39.3,30.0,24.1,13.0,7.3,3.0,63,40,25,30.29,30.07,24,8,36,0.00
2013-2-21,52.3,36.1,23.2,31.0,12.6,6.0,91,41,19,30.38,30.24,12,5,21,0.04
2013-2-22,32.8,31.5,29.9,32.0,30.2,28.0,95,94,92,30.38,30.24,8,1,13,0.14
2013-2-23,48.3,43.2,31.2,46.0,41.3,30.0,96,93,82,30.26,29.95,10,3,15,0.26
2013-2-24,49.0,40.4,34.0,39.0,28.2,22.0,94,64,35,30.15,29.93,13,4,21,0.00
2013-2-25,39.1,32.2,28.4,27.0,23.3,19.0,82,70,56,30.26,30.13,9,5,14,0.00
2013-2-26,35.2,31.8,25.7,34.0,30.2,22.0,96,93,78,30.22,29.75,7,2,15,0.98
2013-2-27,49.7,37.0,31.0,37.0,31.4,27.0,96,81,50,29.93,29.77,17,5,30,0.12
2013-2-28,32.8,28.4,25.7,28.0,24.1,23.0,91,84,78,30.01,29.80,19,6,32,0.00
2013-3-1,34.1,28.9,25.7,28.0,25.4,24.0,92,86,74,30.08,29.99,11,4,21,0.03
2013-3-2,30.7,27.0,19.7,27.0,23.3,16.0,91,86,78,30.06,29.98,14,4,24,0.02
2013-3-3,28.1,21.5,17.2,18.0,15.6,12.0,87,78,64,30.15,30.02,18,8,31,0.01
2013-3-4,45.3,30.7,18.9,18.0,13.6,5.0,80,54,20,30.32,30.14,25,6,30,0.00
2013-3-5,42.9,38.5,30.1,40.0,30.8,13.0,95,77,31,30.25,29.71,13,2,24,1.09
2013-3-6,29.6,24.8,21.3,26.0,22.0,19.0,93,89,80,30.26,29.66,22,10,39,0.01
2013-3-7,32.9,26.1,23.2,28.0,23.1,21.0,93,88,79,30.43,30.26,22,10,30,0.00
2013-3-8,40.5,30.2,22.5,27.0,23.1,19.0,88,76,56,30.52,30.40,13,7,28,0.00
2013-3-9,55.9,44.1,28.4,28.0,23.2,16.0,84,45,29,30.50,30.40,9,3,12,0.00
2013-3-10,57.5,47.6,40.5,34.0,30.4,27.0,62,52,39,30.39,30.27,17,7,25,0.00
2013-3-11,47.6,43.4,40.7,47.0,40.2,32.0,96,89,62,30.27,29.99,17,8,25,0.83
2013-3-12,47.8,41.4,34.8,47.0,37.2,27.0,96,85,66,30.11,29.88,12,6,23,0.85
2013-3-13,36.1,31.0,22.9,30.0,22.2,15.0,87,71,54,30.24,30.10,20,6,33,0.02
2013-3-14,39.3,27.5,19.0,17.0,14.7,13.0,80,61,37,30.45,30.22,20,6,30,0.00
2013-3-15,58.2,43.4,28.7,41.0,28.1,16.0,85,57,28,30.36,30.06,13,5,23,0.00
2013-3-16,67.8,59.5,53.3,47.0,43.4,40.0,71,56,40,30.06,29.80,20,6,35,0.00
2013-3-17,60.1,53.3,36.2,49.0,46.1,35.0,94,77,65,30.10,29.93,10,3,17,0.00
2013-3-18,42.9,35.0,31.1,42.0,33.8,30.0,96,95,94,30.17,30.03,8,2,14,0.38
2013-3-19,48.7,41.9,34.2,44.0,28.8,9.0,96,65,28,30.16,29.99,16,5,27,0.04
2013-3-20,45.6,35.6,25.6,27.0,12.2,6.0,91,40,23,30.21,29.95,16,4,25,0.00
2013-3-21,28.8,22.9,16.7,22.0,12.0,10.0,87,63,48,30.14,29.84,17,6,26,0.01
2013-3-22,43.1,29.1,17.0,29.0,14.6,10.0,78,57,35,30.23,30.12,7,3,14,0.00
2013-3-23,49.1,39.7,33.1,39.0,33.0,27.0,88,78,62,30.21,30.03,7,2,15,0.00
2013-3-24,39.2,34.9,30.8,36.0,32.9,29.0,95,92,78,30.04,29.65,9,2,16,0.96
2013-3-25,30.7,26.8,23.9,29.0,24.4,22.0,94,90,84,29.98,29.65,20,3,29,0.16
2013-3-26,32.2,26.9,23.3,26.0,23.0,21.0,90,85,77,30.30,29.94,21,8,34,0.10
2013-3-27,35.1,28.1,23.6,25.0,21.7,19.0,89,77,63,30.43,30.30,12,5,25,0.08
2013-3-28,41.6,32.4,24.7,26.0,21.4,18.0,75,65,49,30.47,30.36,15,4,22,0.01
2013-3-29,48.8,37.0,27.9,32.0,23.6,16.0,88,61,29,30.48,30.38,9,4,16,0.00
2013-3-30,54.2,43.7,33.7,38.0,33.3,30.0,92,69,43,30.38,30.20,11,4,13,0.00
2013-3-31,54.0,47.2,41.2,49.0,43.6,38.0,95,88,73,30.19,29.95,11,3,20,0.45
2013-4-1,52.0,46.0,39.4,44.0,37.6,31.0,92,74,61,30.07,29.93,13,5,27,0.01
2013-4-2,48.1,39.3,30.6,31.0,22.8,17.0,78,54,31,30.28,30.07,13,4,15,0.00
2013-4-3,52.4,39.5,29.7,24.0,16.7,13.0,53,41,26,30.42,30.26,10,4,17,0.00
2013-4-4,40.2,33.5,29.6,33.0,24.2,11.0,94,73,37,30.41,30.12,7,3,10,0.03
2013-4-5,49.7,40.9,34.4,40.0,35.0,31.0,95,81,53,30.21,30.07,12,6,23,0.30
2013-4-6,59.1,49.2,38.6,37.0,32.2,28.0,67,53,39,30.35,30.20,9,4,19,0.00
2013-4-7,63.5,51.4,40.1,44.0,39.6,33.0,83,65,48,30.31,30.21,12,5,21,0.00
2013-4-8,67.6,58.4,49.5,51.0,46.1,41.0,73,64,52,30.25,30.14,12,4,22,0.00
2013-4-9,75.3,63.4,52.1,54.0,49.9,46.0,80,63,43,30.28,30.15,10,4,19,0.00
2013-4-10,78.3,65.7,54.5,56.0,52.4,50.0,86,64,40,30.17,30.01,13,4,17,0.00
2013-4-11,71.4,61.7,53.7,58.0,54.1,51.0,94,77,54,30.02,29.76,14,5,24,0.36
2013-4-12,65.1,56.0,46.5,59.0,48.1,36.0,95,77,45,29.90,29.68,21,6,29,2.06
2013-4-13,62.2,51.5,43.2,38.0,34.0,27.0,75,54,28,30.16,29.84,26,6,31,0.00
2013-4-14,65.5,55.4,46.6,47.0,36.9,30.0,91,51,34,30.20,30.06,13,6,26,0.01
2013-4-15,51.6,49.7,47.2,50.0,48.3,46.0,96,95,91,30.33,30.06,11,3,17,0.43
2013-4-16,69.5,58.8,50.5,60.0,54.4,49.0,97,86,65,30.41,30.30,8,4,15,0.00
2013-4-17,66.0,59.2,55.0,60.0,55.6,53.0,93,88,74,30.32,30.21,12,4,15,0.18
2013-4-18,68.4,59.8,55.8,59.0,55.8,54.0,95,87,63,30.22,30.01,21,7,24,0.02
2013-4-19,59.2,54.0,38.7,58.0,52.7,35.0,97,95,85,30.00,29.79,20,10,35,1.64
2013-4-20,50.3,40.9,31.6,34.0,28.9,25.0,84,64,42,30.44,29.91,17,6,37,0.00
2013-4-21,53.4,43.7,34.2,34.0,29.6,23.0,79,59,44,30.60,30.43,9,4,20,0.00
2013-4-22,56.2,44.4,35.7,37.0,32.5,24.0,90,65,44,30.55,30.37,8,3,14,0.00
2013-4-23,63.5,50.5,39.3,47.0,38.7,24.0,80,65,48,30.41,30.23,10,4,15,0.00
2013-4-24,67.2,55.2,47.5,55.0,49.0,44.0,92,80,62,30.24,30.07,12,4,23,0.03
2013-4-25,60.2,47.5,34.6,45.0,30.9,12.0,91,60,15,30.42,30.14,12,5,18,0.00
2013-4-26,59.8,50.7,40.8,37.0,32.0,27.0,61,50,38,30.53,30.42,13,5,19,0.00
2013-4-27,54.4,49.4,46.7,46.0,43.0,33.0,95,79,49,30.49,30.33,8,2,16,0.09
2013-4-28,48.8,46.4,43.6,48.0,45.1,42.0,96,95,90,30.34,30.15,16,4,20,1.22
2013-4-29,59.3,53.5,47.8,55.0,51.6,47.0,97,93,84,30.20,30.08,7,2,10,0.12
2013-4-30,65.2,55.9,53.0,58.0,53.8,52.0,96,92,73,30.27,30.09,11,3,12,0.43
2013-5-1,55.7,52.1,49.1,52.0,50.0,48.0,96,92,83,30.40,30.26,13,3,18,0.03
2013-5-2,52.5,49.6,46.8,51.0,48.6,46.0,97,96,95,30.43,30.34,13,3,19,0.53
2013-5-3,53.4,49.0,45.0,49.0,46.5,44.0,97,91,78,30.37,30.24,19,6,24,0.10
2013-5-4,48.3,43.4,39.0,45.0,41.0,36.0,96,91,81,30.25,30.15,17,6,26,0.07
2013-5-5,48.5,44.0,40.2,48.0,42.9,39.0,96,96,95,30.20,30.00,24,9,38,3.86
2013-5-6,55.7,49.7,45.5,54.0,47.2,42.0,97,91,66,30.02,29.94,22,6,37,2.72
2013-5-7,54.7,47.4,41.7,49.0,45.0,40.0,95,91,78,30.06,29.97,7,2,11,0.48
2013-5-8,59.6,52.2,45.9,53.0,49.0,45.0,96,89,76,30.14,30.03,13,3,19,0.04
2013-5-9,70.6,58.8,48.1,55.0,50.3,47.0,95,75,44,30.21,30.11,10,3,17,0.00
2013-5-10,71.3,61.8,51.5,58.0,53.6,48.0,93,75,59,30.19,30.03,11,3,27,0.06
2013-5-11,64.6,59.2,53.6,57.0,53.9,49.0,91,83,73,30.04,29.90,8,3,22,0.17
2013-5-12,55.7,49.7,43.2,49.0,38.9,30.0,89,68,47,30.13,29.89,21,6,23,0.00
2013-5-13,53.7,45.7,37.5,33.0,29.5,25.0,73,55,35,30.31,30.13,12,5,22,0.00
2013-5-14,64.3,52.1,39.0,45.0,37.1,28.0,76,58,44,30.36,30.20,8,2,13,0.00
2013-5-15,78.4,68.0,54.2,57.0,51.0,45.0,75,57,36,30.19,30.05,22,6,31,0.00
2013-5-16,71.9,64.7,56.5,54.0,49.3,42.0,68,58,46,30.12,29.97,15,5,29,0.00
2013-5-17,72.7,63.5,53.7,59.0,54.7,47.0,91,74,56,30.18,30.09,9,3,15,0.32
2013-5-18,60.6,58.9,57.1,58.0,57.1,55.0,96,93,85,30.19,30.13,13,2,15,0.71
2013-5-19,62.6,60.0,57.7,62.0,59.1,57.0,97,96,96,30.20,30.11,8,2,11,0.25
2013-5-20,72.2,62.9,56.9,66.0,60.6,56.0,97,92,69,30.22,30.12,7,2,18,0.43
2013-5-21,75.0,66.2,57.5,66.0,61.5,56.0,96,86,65,30.14,30.01,11,2,17,0.70
2013-5-22,70.0,62.4,57.7,66.0,59.4,56.0,95,90,76,30.07,29.98,8,3,16,1.32
2013-5-23,71.6,61.9,56.3,61.0,55.8,52.0,96,82,52,30.05,29.92,12,3,25,0.12
2013-5-24,55.9,51.2,44.5,51.0,43.3,36.0,93,75,52,30.29,29.91,21,7,29,0.08
2013-5-25,64.3,52.7,43.0,42.0,36.6,29.0,77,57,29,30.42,30.30,17,6,28,0.00
2013-5-26,65.6,55.9,46.9,48.0,42.4,37.0,83,62,40,30.37,30.29,11,3,16,0.00
2013-5-27,69.9,60.8,50.4,58.0,52.4,46.0,84,74,64,30.36,30.24,11,3,15,0.00
2013-5-28,69.9,63.9,56.6,64.0,58.0,54.0,91,81,68,30.30,30.22,10,3,20,0.00
2013-5-29,74.7,65.8,57.2,64.0,59.3,54.0,93,80,62,30.30,30.23,11,3,18,0.00
2013-5-30,72.8,65.4,57.6,64.0,59.4,55.0,93,81,67,30.33,30.25,11,3,13,0.00
2013-5-31,73.1,66.1,60.4,64.0,59.7,57.0,89,80,63,30.29,30.19,16,3,17,0.00
2013-6-1,73.9,66.2,60.5,66.0,60.8,58.0,94,83,66,30.21,30.09,11,4,18,0.00
2013-6-2,65.7,62.6,60.4,64.0,60.7,58.0,96,93,84,30.11,29.97,10,3,19,0.25
2013-6-3,73.1,64.8,59.3,62.0,58.9,56.0,96,82,59,30.06,29.95,15,2,20,0.01
2013-6-4,66.5,60.1,56.9,62.0,57.5,55.0,95,91,84,30.21,30.05,7,2,9,0.17
2013-6-5,63.6,60.7,58.9,62.0,59.3,57.0,96,94,90,30.21,30.09,9,2,11,0.39
2013-6-6,65.8,62.5,59.7,65.0,61.6,59.0,97,97,96,30.10,29.88,7,2,11,2.88
2013-6-7,70.1,62.9,59.4,64.0,61.0,58.0,97,93,81,29.92,29.75,12,4,21,0.90
2013-6-8,68.3,63.1,55.7,65.0,60.9,54.0,96,92,87,30.19,29.91,7,2,12,0.38
2013-6-9,71.1,64.0,57.8,66.0,61.5,55.0,96,92,74,30.24,30.13,14,3,18,1.86
2013-6-10,69.9,64.1,61.1,66.0,61.6,55.0,97,92,61,30.13,29.97,14,3,23,1.70
2013-6-11,73.2,64.9,59.1,62.0,58.8,56.0,94,81,66,30.10,29.99,12,3,19,0.06
2013-6-12,81.5,72.2,63.0,69.0,64.6,59.0,88,78,62,30.09,29.98,18,4,25,0.00
2013-6-13,80.7,69.1,59.5,65.0,60.8,53.0,88,76,51,29.98,29.72,16,7,36,0.33
2013-6-14,68.0,60.9,55.6,56.0,53.0,51.0,88,76,60,30.16,29.83,14,5,23,0.00
2013-6-15,73.3,63.0,50.8,60.0,54.8,47.0,90,76,53,30.25,30.16,7,2,12,0.00
2013-6-16,71.3,67.0,60.5,66.0,61.3,57.0,90,82,70,30.19,30.11,11,2,14,0.00
2013-6-17,71.6,66.1,61.7,66.0,63.0,59.0,94,90,78,30.12,30.03,7,2,10,0.07
2013-6-18,66.2,63.5,59.5,65.0,62.0,57.0,96,94,90,30.04,29.88,8,2,22,0.46
2013-6-19,70.1,63.1,55.3,65.0,59.1,54.0,95,87,71,30.23,30.01,7,2,13,0.02
2013-6-20,69.7,63.8,60.6,65.0,61.4,58.0,96,92,80,30.32,30.21,11,2,12,0.01
2013-6-21,73.4,65.4,60.0,64.0,60.7,58.0,95,85,69,30.36,30.28,7,2,12,0.00
2013-6-22,74.1,65.4,54.8,64.0,58.5,52.0,92,79,66,30.32,30.22,7,2,10,0.00
2013-6-23,76.4,67.8,61.1,66.0,62.5,59.0,93,83,64,30.29,30.21,6,1,9,0.00
2013-6-24,74.5,66.7,61.0,69.0,63.5,59.0,94,89,78,30.29,30.19,6,1,16,0.46
2013-6-25,75.6,67.2,61.5,69.0,64.0,60.0,95,89,74,30.22,30.10,7,2,13,0.06
2013-6-26,79.7,69.0,61.0,71.0,64.7,60.0,95,86,63,30.12,29.99,10,3,17,0.07
2013-6-27,74.9,68.7,62.6,69.0,63.9,57.0,93,85,75,30.01,29.82,12,3,24,0.08
2013-6-28,77.6,69.2,64.4,68.0,63.6,59.0,92,83,65,29.86,29.69,18,4,21,0.08
2013-6-29,74.9,67.5,60.9,64.0,58.9,51.0,92,75,46,29.80,29.68,12,2,15,0.00
2013-6-30,72.7,65.0,57.7,66.0,60.7,54.0,94,86,72,29.91,29.77,8,2,15,1.84
2013-7-1,67.1,63.2,60.5,65.0,61.8,59.0,96,95,91,30.07,29.89,15,3,21,1.47
2013-7-2,66.7,63.4,61.1,65.0,62.3,60.0,97,96,95,30.23,30.05,11,3,17,0.69
2013-7-3,67.2,63.6,58.7,66.0,62.8,58.0,97,97,97,30.29,30.20,11,4,19,3.24
2013-7-4,67.8,63.7,59.4,67.0,62.8,59.0,97,97,96,30.33,30.27,16,4,22,4.98
2013-7-5,71.5,64.9,62.8,69.0,63.8,62.0,97,96,89,30.34,30.27,14,4,28,0.72
2013-7-6,70.2,65.6,64.0,69.0,64.8,63.0,97,96,94,30.31,30.21,11,4,23,1.50
2013-7-7,70.0,65.7,62.9,69.0,64.8,62.0,97,96,91,30.26,30.17,9,3,17,2.25
2013-7-8,75.7,67.6,62.4,69.0,64.4,61.0,97,90,71,30.29,30.21,8,2,16,0.00
2013-7-9,77.8,69.4,62.2,72.0,65.6,61.0,95,88,68,30.25,30.16,6,2,11,0.02
2013-7-10,76.8,67.9,62.7,71.0,65.4,61.0,95,91,78,30.20,30.04,6,2,12,0.49
2013-7-11,72.0,66.8,63.4,69.0,65.0,62.0,96,93,86,30.04,29.96,7,2,9,0.02
2013-7-12,74.9,65.3,59.4,68.0,62.7,57.0,96,91,65,30.12,29.96,8,3,19,1.39
2013-7-13,67.1,62.8,59.5,65.0,61.5,58.0,97,95,91,30.24,30.10,12,3,16,0.15
2013-7-14,70.4,65.7,62.8,69.0,64.6,62.0,97,96,93,30.39,30.20,16,6,26,2.35
2013-7-15,75.6,68.4,64.8,69.0,65.4,64.0,97,90,76,30.44,30.37,11,4,17,0.00
2013-7-16,80.9,69.8,59.4,70.0,64.4,58.0,95,84,62,30.41,30.33,8,2,12,0.02
2013-7-17,80.8,69.3,63.5,72.0,66.1,62.0,95,90,71,30.36,30.25,9,3,16,0.20
2013-7-18,79.3,70.9,62.6,72.0,67.0,61.0,96,87,72,30.29,30.16,8,2,12,0.01
2013-7-19,77.3,70.5,63.6,71.0,67.1,62.0,95,89,79,30.20,30.08,5,2,11,0.20
2013-7-20,75.3,69.3,65.8,70.0,66.8,64.0,95,91,82,30.11,30.00,9,1,14,0.00
2013-7-21,75.9,68.1,64.1,72.0,65.6,63.0,95,92,82,30.09,30.01,8,2,13,0.03
2013-7-22,73.9,67.0,62.8,68.0,64.9,61.0,96,92,78,30.07,29.92,8,2,17,0.89
2013-7-23,76.3,68.7,64.2,67.0,63.4,62.0,94,84,61,29.96,29.86,9,3,18,0.00
2013-7-24,78.0,69.6,64.0,69.0,64.5,62.0,94,84,65,29.93,29.83,10,3,15,0.00
2013-7-25,73.5,65.8,60.1,68.0,62.6,57.0,95,89,81,30.14,29.93,8,2,10,0.00
2013-7-26,73.3,65.2,58.6,68.0,62.7,57.0,96,91,76,30.18,30.11,7,2,17,0.05
2013-7-27,67.4,63.8,61.3,66.0,62.6,60.0,96,95,94,30.12,30.00,6,2,15,6.08
2013-7-28,74.3,65.4,60.6,67.0,62.0,58.0,97,89,66,30.11,30.00,9,2,11,0.23
2013-7-29,73.2,62.6,54.0,64.0,57.5,52.0,95,83,66,30.31,30.10,9,3,13,0.00
2013-7-30,68.6,63.4,55.7,64.0,58.9,53.0,94,85,75,30.33,30.26,7,2,10,0.00
2013-7-31,65.2,62.6,60.0,63.0,61.1,58.0,97,95,89,30.28,30.08,5,2,9,0.35
2013-8-1,74.2,67.0,62.4,67.0,63.5,61.0,97,89,71,30.08,30.00,8,2,15,0.10
2013-8-2,73.5,66.2,58.5,68.0,61.9,57.0,95,86,72,30.14,30.03,6,2,10,0.01
2013-8-3,76.5,69.2,64.0,65.0,63.3,61.0,94,82,62,30.14,30.05,12,2,12,0.00
2013-8-4,73.6,67.6,60.3,64.0,61.2,57.0,94,80,60,30.13,30.01,13,3,22,0.08
2013-8-5,71.3,65.0,59.1,66.0,61.0,56.0,95,87,77,30.16,30.08,7,2,13,0.56
2013-8-6,69.2,65.4,62.9,67.0,64.1,62.0,96,95,91,30.14,30.05,6,2,10,0.08
2013-8-7,66.2,65.0,63.4,65.0,64.2,63.0,97,97,96,30.16,30.11,10,3,17,0.40
2013-8-8,70.0,67.0,64.2,69.0,66.3,63.0,97,97,97,30.16,30.10,9,2,11,0.04
2013-8-9,76.2,69.1,64.6,72.0,67.2,64.0,97,93,82,30.16,30.09,7,2,11,0.21
2013-8-10,80.1,68.9,63.2,71.0,66.1,62.0,95,91,70,30.20,30.13,7,2,13,0.93
2013-8-11,78.5,69.0,61.8,71.0,65.5,61.0,96,89,70,30.23,30.14,7,2,14,0.01
2013-8-12,78.7,70.0,65.2,72.0,66.5,64.0,95,89,71,30.16,30.05,6,2,14,0.47
2013-8-13,73.0,67.2,62.9,69.0,64.3,61.0,95,90,78,30.05,29.89,10,3,17,0.03
2013-8-14,67.1,61.3,56.2,60.0,56.2,52.0,93,84,64,30.18,29.94,12,4,22,0.00
2013-8-15,60.8,56.1,53.2,57.0,52.9,50.0,94,89,82,30.26,30.17,7,2,10,0.00
2013-8-16,65.9,58.2,52.7,60.0,54.7,50.0,94,88,77,30.30,30.22,6,2,11,0.00
2013-8-17,60.5,57.5,53.1,59.0,55.3,50.0,96,92,80,30.31,30.25,6,1,12,0.40
2013-8-18,65.2,61.3,58.2,64.0,60.2,57.0,96,96,96,30.33,30.25,5,1,11,2.23
2013-8-19,65.0,62.8,60.7,64.0,61.7,60.0,97,96,96,30.30,30.20,5,1,8,0.42
2013-8-20,71.6,65.3,59.4,67.0,63.4,58.0,97,94,85,30.29,30.20,7,2,13,0.01
2013-8-21,69.5,65.4,61.8,68.0,63.8,60.0,96,94,90,30.33,30.20,6,1,8,0.02
2013-8-22,76.7,68.1,60.8,67.0,63.6,59.0,96,86,67,30.26,30.12,8,2,10,0.02
2013-8-23,73.8,66.8,62.2,68.0,63.3,60.0,94,88,78,30.16,30.07,10,2,14,0.02
2013-8-24,70.0,64.0,57.3,62.0,57.5,54.0,95,80,61,30.41,30.17,7,2,12,0.01
2013-8-25,69.2,62.1,55.6,61.0,56.2,53.0,92,81,69,30.48,30.39,6,1,11,0.00
2013-8-26,73.8,63.6,51.9,63.0,58.1,50.0,94,83,63,30.44,30.24,8,2,16,0.00
2013-8-27,73.6,66.4,61.0,67.0,62.7,59.0,93,88,77,30.24,30.12,11,4,16,0.00
2013-8-28,78.7,70.3,64.3,70.0,65.6,62.0,93,85,68,30.13,29.98,13,4,26,0.00
2013-8-29,79.0,72.6,67.9,69.0,66.2,64.0,93,81,64,30.07,29.95,14,4,33,0.00
2013-8-30,71.6,66.6,63.4,69.0,65.0,62.0,96,94,89,30.12,30.03,9,2,12,0.56
2013-8-31,76.7,68.5,64.1,71.0,65.6,62.0,95,90,76,30.05,29.96,7,2,14,0.01
2013-9-1,75.0,67.7,62.8,70.0,64.8,61.0,94,90,79,30.00,29.89,8,2,10,0.10
2013-9-2,76.6,68.9,63.3,69.0,64.9,62.0,95,87,72,30.00,29.91,8,2,15,0.01
2013-9-3,73.7,67.1,60.4,65.0,61.6,54.0,94,83,57,30.07,29.89,13,4,18,0.00
2013-9-4,74.0,64.2,55.9,67.0,59.9,54.0,94,86,74,30.23,30.07,10,3,11,0.01
2013-9-5,74.3,64.3,55.2,61.0,56.7,51.0,93,78,46,30.24,30.18,9,3,15,0.00
2013-9-6,70.2,63.0,56.1,64.0,59.2,54.0,94,88,78,30.28,30.20,8,3,14,0.00
2013-9-7,73.5,63.6,56.6,67.0,60.1,55.0,94,88,67,30.23,30.10,7,2,11,0.01
2013-9-8,75.6,66.5,60.4,65.0,62.0,58.0,93,86,65,30.12,30.05,6,2,9,0.00
2013-9-9,74.0,66.7,59.9,68.0,63.4,58.0,94,89,81,30.25,30.12,7,2,11,0.00
2013-9-10,76.9,69.7,63.7,70.0,64.5,60.0,93,84,73,30.32,30.25,7,2,12,0.01
2013-9-11,77.8,68.1,61.7,70.0,64.0,59.0,94,87,66,30.29,30.18,6,2,12,0.04
2013-9-12,75.8,67.5,60.8,69.0,64.1,59.0,94,89,73,30.18,29.93,11,4,20,0.09
2013-9-13,67.7,60.9,51.5,60.0,54.6,47.0,93,80,62,30.00,29.86,15,5,22,0.01
2013-9-14,64.3,54.9,44.2,56.0,49.4,42.0,93,82,68,30.25,30.00,8,3,16,0.00
2013-9-15,65.7,58.6,52.3,60.0,55.2,50.0,93,89,79,30.32,30.25,8,2,12,0.00
2013-9-16,71.5,61.9,55.4,61.0,56.8,53.0,93,84,64,30.28,30.21,7,2,13,0.00
2013-9-17,58.8,55.5,53.1,55.0,52.0,48.0,93,88,79,30.41,30.28,7,2,10,0.00
2013-9-18,58.6,53.5,49.4,56.0,51.7,48.0,95,93,89,30.40,30.30,5,2,9,0.01
2013-9-19,68.2,60.9,55.9,63.0,58.7,55.0,96,92,82,30.32,30.20,6,1,11,0.01
2013-9-20,73.4,65.0,58.3,65.0,61.4,57.0,95,88,72,30.20,30.01,9,2,15,0.00
2013-9-21,63.0,60.0,55.0,62.0,58.8,54.0,96,96,95,30.02,29.80,15,4,24,0.95
2013-9-22,63.6,55.8,50.0,54.0,51.4,48.0,95,85,68,30.04,29.82,15,6,21,0.01
2013-9-23,62.6,54.5,48.6,57.0,52.0,47.0,95,91,81,30.19,30.04,6,2,12,0.01
2013-9-24,68.1,58.9,50.1,62.0,55.9,49.0,95,90,77,30.19,30.04,6,2,12,0.01
2013-9-25,56.9,55.5,53.4,56.0,54.2,52.0,96,95,94,30.04,29.96,5,1,8,0.37
2013-9-26,64.6,56.6,51.2,58.0,52.7,50.0,96,87,66,30.17,30.01,5,1,9,0.00
2013-9-27,66.2,58.1,47.0,59.0,53.4,45.0,94,85,75,30.29,30.18,8,2,10,0.00
2013-9-28,60.9,54.9,50.2,56.0,52.4,49.0,95,91,82,30.35,30.27,6,1,10,0.00
2013-9-29,64.2,54.8,47.8,58.0,51.8,46.0,95,90,79,30.29,30.16,6,1,9,0.00
2013-9-30,65.2,57.0,51.5,59.0,54.1,50.0,95,90,75,30.20,30.12,7,1,10,0.00
2013-10-1,69.1,58.8,50.3,59.0,54.0,49.0,95,85,63,30.26,30.18,5,2,10,0.00
2013-10-2,71.3,60.3,52.6,60.0,55.3,51.0,95,84,60,30.28,30.21,6,2,13,0.02
2013-10-3,70.4,62.5,55.6,63.0,58.0,54.0,94,85,70,30.24,30.18,6,2,13,0.00
2013-10-4,72.9,63.3,54.8,63.0,58.4,53.0,95,84,66,30.25,30.19,10,2,13,0.00
2013-10-5,74.7,64.7,56.3,65.0,59.7,55.0,94,85,66,30.25,30.15,8,3,12,0.00
2013-10-6,70.7,64.5,60.3,64.0,60.5,58.0,92,87,72,30.14,29.97,12,4,17,0.00
2013-10-7,62.1,55.7,49.1,60.0,53.0,45.0,95,91,81,30.12,29.87,14,4,21,1.65
2013-10-8,60.3,50.3,42.2,51.0,44.6,40.0,94,81,67,30.37,30.12,13,4,16,0.00
2013-10-9,63.1,52.1,41.4,50.0,43.2,37.0,92,73,55,30.38,30.27,5,2,9,0.00
2013-10-10,62.9,54.4,44.0,53.0,47.4,42.0,93,78,56,30.26,30.13,13,5,20,0.00
2013-10-11,65.4,58.5,52.2,53.0,50.2,45.0,91,75,55,30.13,30.05,15,5,22,0.00
2013-10-12,62.3,57.8,55.0,57.0,54.1,51.0,94,87,78,30.21,30.06,8,3,13,0.00
2013-10-13,62.6,58.1,55.0,61.0,56.5,54.0,95,94,87,30.33,30.21,6,1,8,0.27
2013-10-14,59.8,56.6,54.1,58.0,55.1,53.0,95,95,90,30.35,30.27,7,1,9,0.01
2013-10-15,60.9,53.9,49.8,57.0,52.1,49.0,96,93,84,30.31,30.19,9,1,11,0.01
2013-10-16,61.9,55.2,48.8,58.0,52.4,47.0,95,90,81,30.20,30.08,8,2,9,0.00
2013-10-17,59.2,56.7,52.2,58.0,55.0,51.0,96,94,89,30.09,29.93,8,2,16,0.09
2013-10-18,60.4,51.7,44.4,53.0,48.4,42.0,95,88,72,30.14,29.99,15,5,21,0.00
2013-10-19,56.7,51.9,46.7,54.0,48.5,42.0,96,88,64,30.08,29.94,7,2,18,0.00
2013-10-20,56.0,45.9,36.9,42.0,38.4,33.0,90,76,54,30.24,30.03,14,3,16,0.00
2013-10-21,57.8,49.5,42.2,51.0,45.6,39.0,93,86,75,30.25,30.12,8,2,12,0.00
2013-10-22,59.8,52.0,47.5,50.0,46.2,44.0,93,81,61,30.13,29.91,9,2,14,0.00
2013-10-23,47.6,41.7,31.7,45.0,36.0,26.0,93,80,65,30.12,29.80,16,6,33,0.05
2013-10-24,43.8,36.3,30.5,34.0,30.2,26.0,93,79,64,30.34,30.11,13,4,22,0.00
2013-10-25,35.8,31.3,26.2,32.0,26.6,22.0,94,83,73,30.54,30.34,18,5,27,0.03
2013-10-26,49.7,37.8,24.6,43.0,29.5,21.0,89,73,54,30.52,30.23,10,3,20,0.00
2013-10-27,59.8,49.4,42.0,47.0,40.6,35.0,85,73,51,30.25,30.18,20,4,27,0.00
2013-10-28,54.6,52.0,48.6,51.0,48.8,46.0,93,89,79,30.37,30.22,9,2,12,0.00
2013-10-29,61.6,53.4,46.2,52.0,48.6,45.0,95,84,68,30.45,30.37,9,3,13,0.01
2013-10-30,67.2,58.6,52.3,56.0,52.1,48.0,89,79,63,30.38,30.27,11,2,26,0.00
2013-10-31,58.3,55.4,53.3,56.0,53.3,52.0,95,92,87,30.27,29.93,18,6,23,0.04
2013-11-1,68.4,58.2,50.8,57.0,52.7,43.0,96,83,43,29.91,29.74,20,5,31,0.20
2013-11-2,55.6,47.9,41.5,45.0,38.8,33.0,84,71,55,30.06,29.78,13,6,27,0.00
2013-11-3,47.7,40.8,35.2,35.0,33.1,30.0,86,75,58,30.50,30.03,17,5,26,0.00
2013-11-4,48.9,40.1,34.5,31.0,29.1,27.0,78,66,47,30.66,30.52,10,3,15,0.00
2013-11-5,51.2,40.9,31.1,43.0,33.6,27.0,94,76,50,30.69,30.57,12,3,13,0.01
2013-11-6,57.3,49.5,43.4,51.0,47.4,42.0,95,92,79,30.58,30.25,10,3,15,0.08
2013-11-7,56.2,45.9,33.8,53.0,42.1,29.0,95,86,74,30.25,30.09,21,5,23,0.01
2013-11-8,43.1,35.9,30.9,29.0,23.8,19.0,82,63,40,30.48,30.20,18,6,27,0.00
2013-11-9,48.6,40.7,33.7,30.0,23.9,11.0,66,53,23,30.50,30.33,11,4,22,0.00
2013-11-10,57.3,47.3,37.1,37.0,29.3,16.0,70,51,29,30.36,30.28,15,6,26,0.00
2013-11-11,53.6,42.9,30.9,26.0,21.0,3.0,69,43,21,30.45,30.29,12,4,15,0.00
2013-11-12,48.1,35.7,19.9,36.0,23.7,13.0,85,64,33,30.53,30.15,20,8,27,0.00
2013-11-13,35.6,26.5,18.7,17.0,14.8,12.0,80,63,43,30.71,30.51,16,6,28,0.00
2013-11-14,51.7,39.3,27.6,21.0,14.2,3.0,54,37,23,30.66,30.46,11,4,17,0.00
2013-11-15,51.2,43.7,38.1,44.0,27.3,5.0,95,59,22,30.46,30.33,12,2,12,0.33
2013-11-16,50.0,47.1,45.1,49.0,45.9,44.0,96,95,95,30.39,30.32,11,2,19,0.01
2013-11-17,53.9,51.3,49.7,53.0,50.3,49.0,96,96,96,30.32,30.00,15,6,20,0.44
2013-11-18,56.4,49.8,37.9,55.0,40.6,26.0,96,72,43,30.08,29.95,15,5,27,0.11
2013-11-19,45.4,37.7,30.9,27.0,23.7,21.0,72,58,38,30.41,30.05,21,5,29,0.00
2013-11-20,43.6,34.6,27.5,28.0,25.8,23.0,83,71,51,30.62,30.41,9,3,13,0.00
2013-11-21,49.5,41.2,32.3,46.0,38.7,27.0,95,91,79,30.66,30.55,6,3,13,0.12
2013-11-22,55.1,50.9,44.7,54.0,49.6,43.0,96,95,95,30.55,30.23,7,2,11,0.07
2013-11-23,50.9,40.0,25.7,50.0,36.2,18.0,95,86,70,30.27,30.17,14,6,25,0.02
2013-11-24,26.8,20.7,15.8,18.0,7.8,1.0,83,59,38,30.68,30.26,16,6,31,0.00
2013-11-25,26.7,22.7,17.7,21.0,9.0,2.0,89,56,45,30.70,30.52,10,4,12,0.00
2013-11-26,41.9,37.9,23.9,41.0,36.7,21.0,96,95,90,30.51,29.77,11,5,18,3.38
2013-11-27,41.1,25.7,16.7,40.0,23.2,12.0,96,90,81,30.27,29.69,26,11,36,0.06
2013-11-28,40.3,26.5,14.4,22.0,16.0,11.0,88,67,40,30.66,30.28,16,4,22,0.02
2013-11-29,47.4,34.6,26.3,26.0,19.8,9.0,75,56,35,30.74,30.62,10,4,15,0.00
2013-11-30,39.3,29.8,22.6,25.0,21.9,20.0,90,73,57,30.74,30.53,8,3,12,0.00
2013-12-1,50.6,39.6,28.7,36.0,28.9,20.0,80,67,50,30.52,30.17,8,3,16,0.00
2013-12-2,49.9,40.5,32.8,37.0,33.4,27.0,88,76,59,30.16,29.97,5,3,10,0.00
2013-12-3,52.9,45.2,39.8,46.0,42.2,36.0,95,89,75,30.08,29.98,6,2,11,0.04
2013-12-4,51.3,48.4,45.8,50.0,47.2,45.0,96,95,95,30.20,30.07,8,2,11,0.02
2013-12-5,58.4,54.9,51.1,57.0,53.8,50.0,96,96,96,30.21,30.09,7,3,13,0.38
2013-12-6,60.4,58.4,50.2,59.0,57.4,49.0,96,96,96,30.09,30.01,13,6,20,0.67
2013-12-7,52.8,39.5,33.4,52.0,38.4,32.0,96,96,93,30.51,30.06,16,7,24,0.01
2013-12-8,33.4,30.6,28.7,32.0,29.7,28.0,96,96,95,30.51,30.37,8,3,15,0.13
2013-12-9,50.0,42.7,29.4,49.0,41.7,28.0,97,96,88,30.38,30.16,9,5,22,0.31
2013-12-10,45.5,34.9,23.7,44.0,31.2,17.0,96,86,73,30.38,30.01,15,6,25,0.35
2013-12-11,44.8,31.7,21.4,23.0,16.1,5.0,83,56,25,30.60,30.38,12,5,24,0.00
2013-12-12,32.8,26.3,22.0,21.0,14.2,8.0,80,62,35,30.54,30.39,14,5,25,0.00
2013-12-13,42.8,32.2,21.4,21.0,16.1,11.0,67,53,39,30.55,30.43,10,2,14,0.00
2013-12-14,41.9,35.4,31.8,41.0,30.3,19.0,95,83,53,30.44,29.93,8,2,12,0.80
2013-12-15,42.7,31.8,25.4,41.0,30.0,24.0,95,93,90,30.21,29.88,17,6,27,0.04
2013-12-16,46.6,35.7,25.1,33.0,26.9,23.0,94,73,46,30.34,30.21,15,5,23,0.00
2013-12-17,52.7,42.0,31.2,35.0,30.0,21.0,83,64,45,30.28,30.05,14,5,33,0.01
2013-12-18,39.6,30.7,23.2,20.0,14.9,7.0,79,55,30,30.47,30.10,25,6,29,0.00
2013-12-19,58.2,47.7,35.7,29.0,23.1,12.0,50,39,26,30.47,30.31,7,3,10,0.00
2013-12-20,55.3,46.4,39.5,37.0,27.9,19.0,67,50,35,30.32,30.25,8,2,10,0.00
2013-12-21,56.8,51.8,45.9,55.0,49.3,37.0,95,91,68,30.25,30.09,14,6,26,0.54
2013-12-22,57.9,54.4,51.6,57.0,53.3,50.0,96,96,95,30.15,30.03,16,5,32,2.81
2013-12-23,55.0,43.1,28.6,54.0,41.6,27.0,96,94,91,30.26,30.07,19,8,24,0.54
2013-12-24,28.4,24.1,16.4,26.0,19.7,12.0,93,83,71,30.59,30.25,20,7,24,0.01
2013-12-25,31.6,23.7,16.0,13.0,8.3,-3.0,86,54,36,30.69,30.57,11,3,13,0.00
2013-12-26,41.7,33.2,24.0,26.0,22.6,16.0,79,66,45,30.53,30.46,17,5,18,0.00
2013-12-27,47.4,35.0,26.9,22.0,20.0,17.0,81,56,36,30.62,30.52,6,2,9,0.00
2013-12-28,49.6,40.0,30.7,41.0,23.2,12.0,94,54,27,30.56,30.26,7,3,13,0.17
2013-12-29,46.9,39.8,34.6,45.0,37.5,33.0,95,91,81,30.24,29.88,20,6,29,0.65
2013-12-30,38.9,35.1,29.9,35.0,32.7,29.0,95,91,85,30.28,30.03,23,7,25,0.00
2013-12-31,34.8,28.7,24.4,29.0,21.6,18.0,95,76,52,30.55,30.25,22,6,30,0.00
2014-1-1,40.6,34.5,25.9,27.0,20.4,11.0,83,58,36,30.54,30.27,9,4,14,0.00
2014-1-2,43.1,34.2,15.3,41.0,29.1,13.0,94,82,59,30.27,29.75,20,4,38,0.06